Time;durP1;ratioP1;P1;durP2;ratioP2;P2;SDS_P1;SDS_P2;PMS_P1;PMS_P2;Temp;Humidity;BMP_temperature;BMP_pressure;BME280_temperature;BME280_humidity;BME280_pressure;Samples;Min_cycle;Max_cycle;Signal;HPM_P1;HPM_P2
2023/08/08 00:01:50;;;;;;;0.20;0.20;;;;;;;;;;5029720;28;20622;-86
2023/08/08 00:04:16;;;;;;;0.20;0.20;;;;;;;;;;5029088;28;20116;-87
2023/08/08 00:06:41;;;;;;;0.10;0.10;;;;;;;;;;5029917;28;20499;-87
2023/08/08 00:09:07;;;;;;;0.20;0.20;;;;;;;;;;5029904;28;20041;-88
2023/08/08 00:11:32;;;;;;;0.20;0.20;;;;;;;;;;5016369;28;20053;-86
2023/08/08 00:13:57;;;;;;;0.20;0.20;;;;;;;;;;5022067;28;20052;-86
2023/08/08 00:16:23;;;;;;;0.20;0.20;;;;;;;;;;5011201;28;20042;-86
2023/08/08 00:18:53;;;;;;;0.20;0.20;;;;;;;;;;5026683;28;20033;-87
2023/08/08 00:21:21;;;;;;;0.20;0.20;;;;;;;;;;5031056;28;20037;-87
2023/08/08 00:23:47;;;;;;;0.10;0.10;;;;;;;;;;5031874;28;20033;-86
2023/08/08 00:26:12;;;;;;;0.15;0.15;;;;;;;;;;5030853;28;20056;-86
2023/08/08 00:28:38;;;;;;;0.20;0.20;;;;;;;;;;5024431;28;20621;-87
2023/08/08 00:31:03;;;;;;;0.20;0.20;;;;;;;;;;5023070;28;20041;-88
2023/08/08 00:33:28;;;;;;;0.20;0.20;;;;;;;;;;5029873;28;20565;-88
2023/08/08 00:35:54;;;;;;;0.20;0.20;;;;;;;;;;5021414;28;20042;-88
2023/08/08 00:38:19;;;;;;;0.10;0.10;;;;;;;;;;5029699;28;20041;-86
2023/08/08 00:40:44;;;;;;;0.20;0.20;;;;;;;;;;5032729;28;20503;-86
2023/08/08 00:43:10;;;;;;;0.20;0.20;;;;;;;;;;5025772;28;20087;-87
2023/08/08 00:45:36;;;;;;;0.20;0.20;;;;;;;;;;5033408;28;20053;-87
2023/08/08 00:48:01;;;;;;;0.20;0.20;;;;;;;;;;5039322;28;20044;-87
2023/08/08 00:50:29;;;;;;;0.10;0.10;;;;;;;;;;5023406;28;20036;-86
2023/08/08 00:52:54;;;;;;;0.20;0.20;;;;;;;;;;5034729;28;20037;-86
2023/08/08 00:55:19;;;;;;;0.20;0.20;;;;;;;;;;5034694;28;20068;-88
2023/08/08 00:57:45;;;;;;;0.20;0.20;;;;;;;;;;5024596;28;20289;-86
2023/08/08 01:00:11;;;;;;;0.10;0.10;;;;;;;;;;5033098;28;20211;-87
2023/08/08 01:02:36;;;;;;;0.20;0.20;;;;;;;;;;5032314;28;20112;-86
2023/08/08 01:05:02;;;;;;;0.20;0.20;;;;;;;;;;5027718;28;20061;-86
2023/08/08 01:07:28;;;;;;;0.15;0.15;;;;;;;;;;5031751;28;20046;-86
2023/08/08 01:09:55;;;;;;;0.20;0.20;;;;;;;;;;5034777;28;20124;-86
2023/08/08 01:12:21;;;;;;;0.17;0.17;;;;;;;;;;5036000;28;20041;-87
2023/08/08 01:14:46;;;;;;;0.20;0.20;;;;;;;;;;5032280;28;20040;-86
2023/08/08 01:17:12;;;;;;;0.20;0.20;;;;;;;;;;5032293;28;20112;-86
2023/08/08 01:19:38;;;;;;;0.20;0.20;;;;;;;;;;5033100;28;20068;-86
2023/08/08 01:22:09;;;;;;;0.20;0.20;;;;;;;;;;5035335;28;20033;-87
2023/08/08 01:24:36;;;;;;;0.10;0.10;;;;;;;;;;5033489;28;20352;-88
2023/08/08 01:27:02;;;;;;;0.20;0.20;;;;;;;;;;5020150;28;20048;-86
2023/08/08 01:29:28;;;;;;;0.10;0.10;;;;;;;;;;5027343;28;20045;-86
2023/08/08 01:31:53;;;;;;;0.10;0.10;;;;;;;;;;5031020;28;20072;-86
2023/08/08 01:34:18;;;;;;;0.20;0.20;;;;;;;;;;5031941;28;20038;-87
2023/08/08 01:36:50;;;;;;;0.20;0.20;;;;;;;;;;5031442;28;20037;-86
2023/08/08 01:39:20;;;;;;;0.20;0.20;;;;;;;;;;5032054;28;20030;-86
2023/08/08 01:41:47;;;;;;;0.20;0.20;;;;;;;;;;5025983;28;20049;-87
2023/08/08 01:44:13;;;;;;;0.20;0.20;;;;;;;;;;5022624;28;20128;-86
2023/08/08 01:46:39;;;;;;;0.20;0.20;;;;;;;;;;5031211;28;20068;-88
2023/08/08 01:49:04;;;;;;;0.17;0.17;;;;;;;;;;5027130;28;20097;-86
2023/08/08 01:51:29;;;;;;;0.20;0.20;;;;;;;;;;5032315;28;20037;-87
2023/08/08 01:53:55;;;;;;;0.10;0.10;;;;;;;;;;5023923;28;20121;-86
2023/08/08 01:56:20;;;;;;;0.10;0.10;;;;;;;;;;5024823;28;20095;-87
2023/08/08 01:58:45;;;;;;;0.17;0.17;;;;;;;;;;5034056;28;20499;-88
2023/08/08 02:01:10;;;;;;;0.20;0.20;;;;;;;;;;5036521;28;20025;-87
2023/08/08 02:03:36;;;;;;;0.10;0.10;;;;;;;;;;5039475;28;20198;-86
2023/08/08 02:06:01;;;;;;;0.13;0.13;;;;;;;;;;5036261;28;20041;-86
2023/08/08 02:08:26;;;;;;;0.20;0.20;;;;;;;;;;5029887;28;20507;-86
2023/08/08 02:10:51;;;;;;;0.10;0.10;;;;;;;;;;5032022;28;20030;-86
2023/08/08 02:13:17;;;;;;;0.20;0.20;;;;;;;;;;5026150;28;20709;-86
2023/08/08 02:15:42;;;;;;;0.20;0.20;;;;;;;;;;5066643;28;20644;-86
2023/08/08 02:18:08;;;;;;;0.20;0.20;;;;;;;;;;5026032;28;20136;-86
2023/08/08 02:20:34;;;;;;;0.20;0.20;;;;;;;;;;5051596;28;20653;-86
2023/08/08 02:22:59;;;;;;;0.10;0.10;;;;;;;;;;5061861;28;20488;-86
2023/08/08 02:25:25;;;;;;;0.20;0.20;;;;;;;;;;5026648;28;20040;-86
2023/08/08 02:27:50;;;;;;;0.20;0.20;;;;;;;;;;5032189;28;20037;-86
2023/08/08 02:30:15;;;;;;;0.10;0.10;;;;;;;;;;5031351;28;20025;-87
2023/08/08 02:32:41;;;;;;;0.20;0.20;;;;;;;;;;5065650;28;20037;-87
2023/08/08 02:35:06;;;;;;;0.20;0.20;;;;;;;;;;5038867;28;20041;-86
2023/08/08 02:37:32;;;;;;;0.20;0.20;;;;;;;;;;5033319;28;20522;-86
2023/08/08 02:39:57;;;;;;;0.20;0.20;;;;;;;;;;5041263;28;20499;-86
2023/08/08 02:42:25;;;;;;;0.20;0.20;;;;;;;;;;5037568;28;20065;-86
2023/08/08 02:44:50;;;;;;;0.20;0.20;;;;;;;;;;5031948;28;20044;-87
2023/08/08 02:47:16;;;;;;;0.10;0.10;;;;;;;;;;5028854;28;20069;-86
2023/08/08 02:49:41;;;;;;;0.20;0.20;;;;;;;;;;5064364;28;20467;-87
2023/08/08 02:52:06;;;;;;;0.20;0.20;;;;;;;;;;5037780;28;20087;-86
2023/08/08 02:54:32;;;;;;;0.20;0.20;;;;;;;;;;5037579;28;20046;-87
2023/08/08 02:56:57;;;;;;;0.20;0.20;;;;;;;;;;5024747;28;20482;-86
2023/08/08 02:59:22;;;;;;;0.20;0.20;;;;;;;;;;5032887;28;20053;-86
2023/08/08 03:01:47;;;;;;;0.20;0.20;;;;;;;;;;5032109;28;20280;-86
2023/08/08 03:04:13;;;;;;;0.20;0.20;;;;;;;;;;5028672;28;20103;-85
2023/08/08 03:06:38;;;;;;;0.20;0.20;;;;;;;;;;5036320;28;20033;-89
2023/08/08 03:09:05;;;;;;;0.20;0.20;;;;;;;12.87;nan;100473.88;5046286;28;20033;-86
2023/08/08 03:11:30;;;;;;;0.10;0.10;;;;;;;;;;5042596;28;20041;-85
2023/08/08 03:13:55;;;;;;;0.20;0.20;;;;;;;;;;5043371;28;20219;-86
2023/08/08 03:16:20;;;;;;;0.10;0.10;;;;;;;;;;5034837;28;20299;-87
2023/08/08 03:18:46;;;;;;;0.20;0.20;;;;;;;;;;5037006;28;20059;-86
2023/08/08 03:21:11;;;;;;;0.20;0.20;;;;;;;;;;5032724;28;20495;-87
2023/08/08 03:23:36;;;;;;;0.20;0.20;;;;;;;;;;5037121;28;20381;-86
2023/08/08 03:26:01;;;;;;;0.20;0.20;;;;;;;;;;5021814;28;20300;-86
2023/08/08 03:28:27;;;;;;;0.20;0.20;;;;;;;;;;5063958;28;20041;-86
2023/08/08 03:30:54;;;;;;;0.20;0.20;;;;;;;;;;5026760;28;20037;-85
2023/08/08 03:33:20;;;;;;;0.20;0.20;;;;;;;;;;5031998;28;20037;-87
2023/08/08 03:35:45;;;;;;;0.20;0.20;;;;;;;;;;5033001;28;20060;-88
2023/08/08 03:38:10;;;;;;;0.20;0.20;;;;;;;;;;5037589;28;20346;-87
2023/08/08 03:40:35;;;;;;;0.20;0.20;;;;;;;;;;5044142;28;20033;-86
2023/08/08 03:43:01;;;;;;;0.20;0.20;;;;;;;;;;5026073;28;20530;-87
2023/08/08 03:45:27;;;;;;;0.20;0.20;;;;;;;;;;5035277;28;20060;-86
2023/08/08 03:47:52;;;;;;;0.20;0.20;;;;;;;;;;5037412;28;20072;-86
2023/08/08 03:50:17;;;;;;;0.20;0.20;;;;;;;;;;5035993;28;20111;-87
2023/08/08 03:52:43;;;;;;;0.10;0.10;;;;;;;;;;5037439;28;20036;-86
2023/08/08 03:55:08;;;;;;;0.13;0.13;;;;;;;;;;5043838;28;20120;-86
2023/08/08 03:57:33;;;;;;;0.10;0.10;;;;;;;;;;5030046;28;20502;-86
2023/08/08 03:59:59;;;;;;;0.20;0.20;;;;;;;;;;5036885;28;20044;-86
2023/08/08 04:02:24;;;;;;;0.20;0.20;;;;;;;;;;5027342;28;20062;-86
2023/08/08 04:04:50;;;;;;;0.10;0.10;;;;;;;;;;5074570;28;20475;-86
2023/08/08 04:07:15;;;;;;;0.20;0.20;;;;;;;;;;5040222;28;20044;-86
2023/08/08 04:09:42;;;;;;;0.20;0.20;;;;;;;;;;5065624;28;20468;-86
2023/08/08 04:12:07;;;;;;;0.20;0.20;;;;;;;;;;5038473;28;20033;-87
2023/08/08 04:14:32;;;;;;;0.20;0.20;;;;;;;;;;5043511;28;20462;-87
2023/08/08 04:16:58;;;;;;;0.20;0.20;;;;;;;;;;5054502;28;20083;-86
2023/08/08 04:19:23;;;;;;;0.17;0.17;;;;;;;;;;5035564;28;20403;-86
2023/08/08 04:21:48;;;;;;;0.20;0.20;;;;;;;;;;5028671;28;20034;-86
2023/08/08 04:24:13;;;;;;;;;;;;;;;;;;5020089;28;20068;-87
2023/08/08 04:26:39;;;;;;;0.20;0.20;;;;;;;;;;5056597;28;19976;-86
2023/08/08 04:29:04;;;;;;;;;;;;;;;;;;5070903;28;20044;-86
2023/08/08 04:31:29;;;;;;;;;;;;;;;;;;5032192;28;20009;-87
2023/08/08 04:33:59;;;;;;;0.20;0.20;;;;;;;;;;5034026;28;19917;-88
2023/08/08 04:36:28;;;;;;;0.20;0.20;;;;;;;;;;5040510;28;20046;-87
2023/08/08 04:38:53;;;;;;;0.20;0.20;;;;;;;;;;5040973;28;20028;-86
2023/08/08 04:41:19;;;;;;;0.20;0.20;;;;;;;;;;5035933;28;20034;-86
2023/08/08 04:43:44;;;;;;;0.10;0.10;;;;;;;;;;5019676;28;20065;-86
2023/08/08 04:46:09;;;;;;;0.20;0.20;;;;;;;;;;5024927;28;20026;-86
2023/08/08 04:48:34;;;;;;;0.20;0.20;;;;;;;;;;5027016;28;20087;-87
2023/08/08 04:51:00;;;;;;;0.17;0.17;;;;;;;;;;5032817;28;20053;-86
2023/08/08 04:53:25;;;;;;;0.10;0.10;;;;;;;;;;5032184;28;20034;-86
2023/08/08 04:55:51;;;;;;;0.20;0.20;;;;;;;;;;5035976;28;20041;-86
2023/08/08 04:58:16;;;;;;;0.20;0.20;;;;;;;;;;5033151;28;20109;-86
2023/08/08 05:00:49;;;;;;;0.20;0.20;;;;;;;;;;5040460;28;20033;-87
2023/08/08 05:03:15;;;;;;;0.20;0.20;;;;;;;;;;5037871;28;20029;-88
2023/08/08 05:05:40;;;;;;;0.20;0.20;;;;;;;;;;5036908;28;20064;-87
2023/08/08 05:08:05;;;;;;;0.20;0.20;;;;;;;;;;5036309;28;20334;-85
2023/08/08 05:10:31;;;;;;;0.20;0.20;;;;;;;;;;5035277;28;20280;-86
2023/08/08 05:12:56;;;;;;;0.20;0.20;;;;;;;;;;5042414;28;20037;-85
2023/08/08 05:15:22;;;;;;;0.17;0.17;;;;;;;;;;5040749;28;20038;-86
2023/08/08 05:17:47;;;;;;;0.20;0.20;;;;;;;;;;5068223;28;20060;-87
2023/08/08 05:20:12;;;;;;;0.10;0.10;;;;;;;;;;5023984;28;20678;-85
2023/08/08 05:22:37;;;;;;;0.20;0.20;;;;;;;;;;5030367;28;20400;-86
2023/08/08 05:25:03;;;;;;;0.20;0.20;;;;;;;;;;5044652;28;20029;-86
2023/08/08 05:27:28;;;;;;;0.20;0.20;;;;;;;;;;5024504;28;20037;-85
2023/08/08 05:29:53;;;;;;;0.20;0.20;;;;;;;;;;5047943;28;20037;-87
2023/08/08 05:32:19;;;;;;;0.20;0.20;;;;;;;;;;5039534;28;20121;-86
2023/08/08 05:34:44;;;;;;;0.20;0.20;;;;;;;;;;5042692;28;20041;-86
2023/08/08 05:37:09;;;;;;;0.20;0.20;;;;;;;22.38;nan;87209.31;5040774;28;20033;-86
2023/08/08 05:39:35;;;;;;;0.10;0.10;;;;;;;;;;5039478;28;20029;-86
2023/08/08 05:42:00;;;;;;;0.20;0.20;;;;;;;;;;5033864;28;20109;-87
2023/08/08 05:44:25;;;;;;;0.20;0.20;;;;;;;;;;5048048;28;20116;-86
2023/08/08 05:46:51;;;;;;;0.10;0.10;;;;;;;;;;5037628;28;20580;-86
2023/08/08 05:49:17;;;;;;;0.10;0.10;;;;;;;;;;5033267;28;20515;-87
2023/08/08 05:51:42;;;;;;;0.10;0.10;;;;;;;;;;5071720;28;20044;-87
2023/08/08 05:54:07;;;;;;;0.10;0.10;;;;;;;;;;5035914;28;20428;-85
2023/08/08 05:56:37;;;;;;;0.10;0.10;;;;;;;;;;5025975;28;20403;-85
2023/08/08 05:59:02;;;;;;;0.10;0.10;;;;;;;;;;5029639;28;20399;-84
2023/08/08 06:01:27;;;;;;;0.10;0.10;;;;;;;;;;5033429;28;20396;-85
2023/08/08 06:03:52;;;;;;;0.10;0.10;;;;;;;;;;5032474;28;20930;-85
2023/08/08 06:06:18;;;;;;;0.00;0.00;;;;;;;;;;5031261;28;20483;-84
2023/08/08 06:08:43;;;;;;;0.00;0.00;;;;;;;;;;5032679;28;20487;-85
2023/08/08 06:11:08;;;;;;;;;;;;;;;18.41;nan;100386.97;5033030;28;20509;-85
2023/08/08 06:13:33;;;;;;;0.10;0.10;;;;;;;;;;5019645;28;19921;-85
2023/08/08 06:16:01;;;;;;;0.10;0.10;;;;;;;;;;5019439;28;20389;-86
2023/08/08 06:18:26;;;;;;;0.10;0.10;;;;;;;;;;5020495;28;21617;-85
2023/08/08 06:20:51;;;;;;;0.10;0.10;;;;;;;;;;5036936;28;20025;-84
2023/08/08 06:23:16;;;;;;;0.10;0.10;;;;;;;;;;5020648;28;20291;-85
2023/08/08 06:25:41;;;;;;;0.10;0.10;;;;;;;;;;5028994;28;20103;-84
2023/08/08 06:28:07;;;;;;;0.10;0.10;;;;;;;18.84;nan;100396.44;5062465;28;20283;-84
2023/08/08 06:30:32;;;;;;;0.10;0.10;;;;;;;;;;5029228;28;20037;-86
2023/08/08 06:32:57;;;;;;;0.10;0.10;;;;;;;18.61;nan;100407.53;5025594;28;20665;-85
2023/08/08 06:35:23;;;;;;;0.10;0.10;;;;;;;19.02;nan;100393.06;5024139;28;20042;-85
2023/08/08 06:37:48;;;;;;;0.10;0.10;;;;;;;;;;5023159;28;20849;-85
2023/08/08 06:40:13;;;;;;;0.10;0.10;;;;;;;;;;5033199;28;20043;-84
2023/08/08 06:42:39;;;;;;;0.10;0.10;;;;;;;;;;5022026;28;20354;-85
2023/08/08 06:45:04;;;;;;;0.10;0.10;;;;;;;;;;5038410;28;20280;-85
2023/08/08 06:47:29;;;;;;;0.10;0.10;;;;;;;;;;5028974;28;20611;-85
2023/08/08 06:49:54;;;;;;;0.10;0.10;;;;;;;;;;5029895;28;20037;-84
2023/08/08 06:52:21;;;;;;;0.10;0.10;;;;;;;;;;5031663;28;20471;-85
2023/08/08 06:54:46;;;;;;;;;;;;;;;19.17;nan;100390.16;5035319;28;20037;-85
2023/08/08 06:57:11;;;;;;;;;;;;;;;19.40;nan;100384.28;5023369;28;19929;-85
2023/08/08 06:59:36;;;;;;;;;;;;;;;;;;5027973;28;20447;-85
2023/08/08 07:02:02;;;;;;;;;;;;;;;19.51;nan;100392.47;5030615;28;19921;-85
2023/08/08 07:04:27;;;;;;;0.10;0.10;;;;;;;19.40;nan;100395.00;5028213;28;19917;-85
2023/08/08 07:06:52;;;;;;;0.10;0.10;;;;;;;19.47;nan;100454.78;5026616;28;20033;-85
2023/08/08 07:09:18;;;;;;;0.10;0.10;;;;;;;19.78;nan;100388.84;5031499;28;20979;-84
2023/08/08 07:11:43;;;;;;;;;;;;;;;20.13;nan;100411.53;5025813;28;20129;-85
2023/08/08 07:14:08;;;;;;;;;;;;;;;20.45;nan;100403.47;5027141;28;19925;-85
2023/08/08 07:16:33;;;;;;;;;;;;;;;20.94;nan;100409.81;5029730;28;19996;-85
2023/08/08 07:18:59;;;;;;;;;;;;;;;21.31;nan;100417.06;5023698;28;19989;-85
2023/08/08 07:21:24;;;;;;;;;;;;;;;21.55;nan;100435.03;5029178;28;20398;-85
2023/08/08 07:23:49;;;;;;;;;;;;;;;21.65;nan;100415.66;5032051;28;19917;-85
2023/08/08 07:26:15;;;;;;;;;;;;;;;21.62;nan;100410.72;5031003;28;19913;-85
2023/08/08 07:28:40;;;;;;;;;;;;;;;21.52;nan;100413.94;5036605;28;20417;-85
2023/08/08 07:31:05;;;;;;;;;;;;;;;21.50;nan;100425.97;5061623;28;20383;-85
2023/08/08 07:33:31;;;;;;;;;;;;;;;21.71;nan;100417.41;5031002;28;19975;-85
2023/08/08 07:35:56;;;;;;;;;;;;;;;22.15;nan;100418.03;5031465;28;19943;-85
2023/08/08 07:38:21;;;;;;;;;;;;;;;22.68;nan;100419.88;5031096;28;19924;-85
2023/08/08 07:40:47;;;;;;;;;;;;;;;23.10;nan;100424.34;5026277;28;19925;-86
2023/08/08 07:43:13;;;;;;;;;;;;;;;23.43;nan;100418.28;5024685;28;20419;-86
2023/08/08 07:45:38;;;;;;;;;;;;;;;23.34;nan;100429.69;5022606;28;20016;-85
2023/08/08 07:48:04;;;;;;;;;;;;;;;23.01;nan;100417.66;5018965;28;19918;-85
2023/08/08 07:50:29;;;;;;;;;;;;;;;22.95;nan;100415.88;5056530;28;19917;-85
2023/08/08 07:52:54;;;;;;;;;;;;;;;23.00;nan;100408.75;5020874;28;19928;-85
2023/08/08 07:55:19;;;;;;;;;;;;;;;23.13;nan;100423.84;5029412;28;19917;-86
2023/08/08 07:57:45;;;;;;;;;;;;;;;23.19;nan;100405.88;5030911;28;19924;-86
2023/08/08 08:00:13;;;;;;;;;;;;;;;23.07;nan;100412.16;5027870;28;20286;-85
2023/08/08 08:02:39;;;;;;;;;;;;;;;22.89;nan;100402.28;5023172;28;20370;-86
2023/08/08 08:05:07;;;;;;;;;;;;;;;22.61;nan;100403.00;5028030;28;19924;-85
2023/08/08 08:07:33;;;;;;;;;;;;;;;22.65;nan;100395.28;5022902;28;19921;-85
2023/08/08 08:09:58;;;;;;;;;;;;;;;22.73;nan;100404.88;5019750;28;19932;-85
2023/08/08 08:12:23;;;;;;;;;;;;;;;22.71;nan;100412.38;5025390;28;19917;-86
2023/08/08 08:14:49;;;;;;;;;;;;;;;22.89;nan;100407.66;5016808;28;19921;-86
2023/08/08 08:17:14;;;;;;;;;;;;;;;22.93;nan;100401.78;5027026;28;19917;-86
2023/08/08 08:19:39;;;;;;;;;;;;;;;22.96;nan;100406.75;5021985;28;20036;-86
2023/08/08 08:22:04;;;;;;;;;;;;;;;22.65;nan;100409.56;5024227;28;19959;-85
2023/08/08 08:24:29;;;;;;;;;;;;;;;22.52;nan;100412.47;5026808;28;19925;-86
2023/08/08 08:26:55;;;;;;;;;;;;;;;22.49;nan;100407.56;5026592;28;20004;-86
2023/08/08 08:29:20;;;;;;;;;;;;;;;22.32;nan;100385.06;5033320;28;19929;-86
2023/08/08 08:31:45;;;;;;;;;;;;;;;21.98;nan;100396.34;5033128;28;19917;-85
2023/08/08 08:34:10;;;;;;;;;;;;;;;21.83;nan;100395.91;5032179;28;20298;-86
2023/08/08 08:36:35;;;;;;;;;;;;;;;21.77;nan;100399.53;5019055;28;19921;-85
2023/08/08 08:39:01;;;;;;;;;;;;;;;21.76;nan;100382.59;5029704;28;20410;-85
2023/08/08 08:41:27;;;;;;;;;;;;;;;21.94;nan;100395.13;5027379;28;20354;-86
2023/08/08 08:43:53;;;;;;;;;;;;;;;22.21;nan;100405.53;5024427;28;20345;-86
2023/08/08 08:46:20;;;;;;;;;;;;;;;22.30;nan;100398.75;5021238;28;19921;-86
2023/08/08 08:48:45;;;;;;;;;;;;;;;22.35;nan;100404.25;5021909;28;20002;-85
2023/08/08 08:51:11;;;;;;;;;;;;;;;22.45;nan;100407.22;5029002;28;20638;-87
2023/08/08 08:53:39;;;;;;;;;;;;;;;22.57;nan;100409.09;5019498;28;19921;-86
2023/08/08 08:56:04;;;;;;;;;;;;;;;22.78;nan;100400.41;5025043;28;19988;-86
2023/08/08 08:58:30;;;;;;;;;;;;;;;22.94;nan;100398.06;5024391;28;20017;-86
2023/08/08 09:00:56;;;;;;;;;;;;;;;23.03;nan;100392.09;5031551;28;20035;-86
2023/08/08 09:03:21;;;;;;;;;;;;;;;23.42;nan;100395.03;5026286;28;19923;-87
2023/08/08 09:05:48;;;;;;;;;;;;;;;23.58;nan;100404.25;5029811;28;19980;-86
2023/08/08 09:08:13;;;;;;;;;;;;;;;23.56;nan;100384.78;5028843;28;19931;-86
2023/08/08 09:10:38;;;;;;;;;;;;;;;23.64;nan;100391.66;5025926;28;19920;-85
2023/08/08 09:13:03;;;;;;;;;;;;;;;23.78;nan;100393.03;5016897;28;20123;-86
2023/08/08 09:15:32;;;;;;;;;;;;;;;24.06;nan;100389.47;5028602;28;20382;-86
2023/08/08 09:17:57;;;;;;;;;;;;;;;24.26;nan;100388.97;5029173;28;19921;-86
2023/08/08 09:20:23;;;;;;;;;;;;;;;24.33;nan;100389.63;5025590;28;19924;-86
2023/08/08 09:22:48;;;;;;;;;;;;;;;24.54;nan;100390.81;5025112;28;19917;-86
2023/08/08 09:25:13;;;;;;;;;;;;;;;24.57;nan;100384.09;5028140;28;19942;-89
2023/08/08 09:27:40;;;;;;;;;;;;;;;25.22;nan;100390.69;5030654;28;19917;-87
2023/08/08 09:30:06;;;;;;;;;;;;;;;26.01;nan;100402.91;5030170;28;20397;-87
2023/08/08 09:32:31;;;;;;;;;;;;;;;26.73;nan;100398.84;5030274;28;19917;-88
2023/08/08 09:34:57;;;;;;;;;;;;;;;27.31;nan;100396.97;5033341;28;19987;-87
2023/08/08 09:37:22;;;;;;;;;;;;;;;28.01;nan;100390.34;5041214;28;19923;-87
2023/08/08 09:39:55;;;;;;;;;;;;;;;28.58;nan;100406.41;5037512;28;20294;-87
2023/08/08 09:42:20;;;;;;;;;;;;;;;28.63;nan;100399.31;5031688;28;20574;-86
2023/08/08 09:44:46;;;;;;;;;;;;;;;28.84;nan;100392.75;5029685;28;20151;-87
2023/08/08 09:47:16;;;;;;;;;;;;;;;29.09;nan;100393.78;5032391;28;20378;-86
2023/08/08 09:49:42;;;;;;;;;;;;;;;29.64;nan;100400.00;5031432;28;19917;-86
2023/08/08 09:52:08;;;;;;;;;;;;;;;29.79;nan;100396.41;5044244;28;20449;-88
2023/08/08 09:54:33;;;;;;;;;;;;;;;29.84;nan;100410.81;5045192;28;19981;-86
2023/08/08 09:56:59;;;;;;;;;;;;;;;30.46;nan;100404.88;5041305;28;19916;-87
2023/08/08 09:59:25;;;;;;;;;;;;;;;30.32;nan;100409.38;5035269;28;19924;-88
2023/08/08 10:01:50;;;;;;;;;;;;;;;30.09;nan;100395.34;5039901;28;19919;-87
2023/08/08 10:04:16;;;;;;;;;;;;;;;29.85;nan;100404.25;5035574;28;19935;-87
2023/08/08 10:06:41;;;;;;;;;;;;;;;29.96;nan;100412.34;5031573;28;20325;-87
2023/08/08 10:09:07;;;;;;;;;;;;;;;30.32;nan;100407.47;5036517;28;19957;-86
2023/08/08 10:11:33;;;;;;;;;;;;;;;30.10;nan;100401.63;5036290;28;19917;-88
2023/08/08 10:14:01;;;;;;;;;;;;;;;30.42;nan;100398.38;5034038;28;19917;-87
2023/08/08 10:16:26;;;;;;;;;;;;;;;30.18;nan;100396.38;5020253;28;20304;-87
2023/08/08 10:18:58;;;;;;;;;;;;;;;30.39;nan;100397.03;5020947;28;19995;-88
2023/08/08 10:21:24;;;;;;;;;;;;;;;30.67;nan;100395.38;5028431;28;20260;-88
2023/08/08 10:23:49;;;;;;;;;;;;;;;30.43;nan;100397.25;5029740;28;19921;-86
2023/08/08 10:26:19;;;;;;;;;;;;;;;30.46;nan;100400.25;5027579;28;19913;-86
2023/08/08 10:28:57;;;;;;;;;;;;;;;30.19;nan;100394.44;5030705;28;19917;-87
2023/08/08 10:31:22;;;;;;;;;;;;;;;30.20;nan;100383.28;5030439;28;19921;-86
2023/08/08 10:33:48;;;;;;;;;;;;;;;29.98;nan;100377.44;5027906;28;20345;-88
2023/08/08 10:36:13;;;;;;;;;;;;;;;30.10;nan;100386.06;5028175;28;19963;-87
2023/08/08 10:38:39;;;;;;;;;;;;;;;30.73;nan;100392.59;5029982;28;19919;-87
2023/08/08 10:41:04;;;;;;;;;;;;;;;31.34;nan;100386.41;5023539;28;20004;-87
2023/08/08 10:43:30;;;;;;;;;;;;;;;31.55;nan;100389.69;5030892;28;20375;-86
2023/08/08 10:45:59;;;;;;;;;;;;;;;32.22;nan;100381.25;5036538;28;19917;-87
2023/08/08 10:48:26;;;;;;;;;;;;;;;32.47;nan;100385.47;5028516;28;19962;-86
2023/08/08 10:50:53;;;;;;;;;;;;;;;32.10;nan;100376.28;5046005;28;19962;-87
2023/08/08 10:53:22;;;;;;;;;;;;;;;31.86;nan;100376.38;5041175;28;19928;-85
2023/08/08 10:55:56;;;;;;;;;;;;;;;31.14;nan;100376.56;5030460;28;19921;-87
2023/08/08 10:58:21;;;;;;;;;;;;;;;30.80;nan;100382.97;5020449;28;19928;-87
2023/08/08 11:00:47;;;;;;;;;;;;;;;30.34;nan;100379.88;5012804;28;19917;-87
2023/08/08 11:03:12;;;;;;;;;;;;;;;29.96;nan;100366.00;5027141;28;19921;-86
2023/08/08 11:05:38;;;;;;;;;;;;;;;29.09;nan;100350.19;5032463;28;19916;-85
2023/08/08 11:08:05;;;;;;;;;;;;;;;28.98;nan;100361.13;5037028;28;19917;-87
2023/08/08 11:10:34;;;;;;;;;;;;;;;29.23;nan;100361.31;5028010;28;19916;-86
2023/08/08 11:13:03;;;;;;;;;;;;;;;28.99;nan;100354.56;5031345;28;19917;-86
2023/08/08 11:15:29;;;;;;;;;;;;;;;28.87;nan;100348.63;5061740;28;19944;-85
2023/08/08 11:17:55;;;;;;;;;;;;;;;29.26;nan;100355.28;5021312;28;19972;-85
2023/08/08 11:20:21;;;;;;;;;;;;;;;29.49;nan;100354.59;5012088;28;20404;-84
2023/08/08 11:22:50;;;;;;;;;;;;;;;29.05;nan;100349.09;5018117;28;19963;-84
2023/08/08 11:25:15;;;;;;;;;;;;;;;28.95;nan;100350.75;5032490;28;20398;-86
2023/08/08 11:27:47;;;;;;;;;;;;;;;29.03;nan;100341.19;5033427;28;19948;-85
2023/08/08 11:30:13;;;;;;;;;;;;;;;29.15;nan;100349.06;5033352;28;19963;-85
2023/08/08 11:32:38;;;;;;;;;;;;;;;29.35;nan;100354.41;5033150;28;19917;-88
2023/08/08 11:35:04;;;;;;;;;;;;;;;29.74;nan;100350.91;5032706;28;19967;-85
2023/08/08 11:37:29;;;;;;;;;;;;;;;29.83;nan;100349.22;5032487;28;19913;-85
2023/08/08 11:39:55;;;;;;;;;;;;;;;29.59;nan;100359.19;5034083;28;19914;-85
2023/08/08 11:42:20;;;;;;;;;;;;;;;29.34;nan;100358.25;5031760;28;20462;-86
2023/08/08 11:44:46;;;;;;;;;;;;;;;29.22;nan;100341.41;5033741;28;19921;-85
2023/08/08 11:47:15;;;;;;;;;;;;;;;28.83;nan;100346.75;5032661;28;19920;-87
2023/08/08 11:49:44;;;;;;;;;;;;;;;28.69;nan;100349.22;5026365;28;19970;-85
2023/08/08 11:52:09;;;;;;;;;;;;;;;28.58;nan;100335.66;5030000;28;19920;-85
2023/08/08 11:54:36;;;;;;;;;;;;;;;28.72;nan;100345.94;5032240;28;20008;-84
2023/08/08 11:57:13;;;;;;;;;;;;;;;28.41;nan;100334.31;5033679;28;19921;-85
2023/08/08 11:59:39;;;;;;;;;;;;;;;28.01;nan;100331.38;5035487;28;19920;-86
2023/08/08 12:02:04;;;;;;;;;;;;;;;27.93;nan;100332.72;5034662;28;19913;-86
2023/08/08 12:04:29;;;;;;;;;;;;;;;28.11;nan;100331.38;5033694;28;20339;-88
2023/08/08 12:07:06;;;;;;;;;;;;;;;28.26;nan;100329.72;5035281;28;20004;-87
2023/08/08 12:09:35;;;;;;;;;;;;;;;28.27;nan;100324.03;5048081;28;20421;-86
2023/08/08 12:12:01;;;;;;;;;;;;;;;28.13;nan;100334.63;5035768;28;19945;-87
2023/08/08 12:14:26;;;;;;;;;;;;;;;28.04;nan;100336.25;5013727;28;19929;-86
2023/08/08 12:16:53;;;;;;;;;;;;;;;28.00;nan;100323.50;5014562;28;19914;-86
2023/08/08 12:19:24;;;;;;;;;;;;;;;28.04;nan;100330.84;5014384;28;19913;-85
2023/08/08 12:21:55;;;;;;;;;;;;;;;28.24;nan;100324.53;5011900;28;19913;-86
2023/08/08 12:24:35;;;;;;;;;;;;;;;28.54;nan;100322.91;5015189;28;19917;-87
2023/08/08 12:27:01;;;;;;;;;;;;;;;28.53;nan;100326.69;5014079;28;19960;-86
2023/08/08 12:29:28;;;;;;;;;;;;;;;28.31;nan;100321.53;5032253;28;19925;-86
2023/08/08 12:31:54;;;;;;;;;;;;;;;28.10;nan;100329.75;5014103;28;19917;-88
2023/08/08 12:34:26;;;;;;;;;;;;;;;27.99;nan;100328.13;5013872;28;19956;-86
2023/08/08 12:36:51;;;;;;;;;;;;;;;27.73;nan;100324.56;5013930;28;20326;-86
2023/08/08 12:39:17;;;;;;;;;;;;;;;27.57;nan;100310.13;5013658;28;19962;-88
2023/08/08 12:41:42;;;;;;;;;;;;;;;27.60;nan;100314.22;5026551;28;19913;-86
2023/08/08 12:44:08;;;;;;;;;;;;;;;27.56;nan;100313.13;5030830;28;19968;-87
2023/08/08 12:46:33;;;;;;;;;;;;;;;27.55;nan;100312.31;5031600;28;19917;-87
2023/08/08 12:49:02;;;;;;;;;;;;;;;27.38;nan;100311.75;5032992;28;20358;-86
2023/08/08 12:51:28;;;;;;;;;;;;;;;27.05;nan;100309.19;5032596;28;19963;-87
2023/08/08 12:53:54;;;;;;;;;;;;;;;27.14;nan;100312.19;5032594;28;19913;-86
2023/08/08 12:56:19;;;;;;;;;;;;;;;27.07;nan;100317.06;5031426;28;19927;-85
2023/08/08 12:58:47;;;;;;;;;;;;;;;27.04;nan;100280.41;5027926;28;20337;-86
2023/08/08 13:01:13;;;;;;;;;;;;;;;26.87;nan;100306.97;5032729;28;19917;-86
2023/08/08 13:03:39;;;;;;;;;;;;;;;26.80;nan;100293.63;5033124;28;19978;-86
2023/08/08 13:06:05;;;;;;;;;;;;;;;26.88;nan;100297.72;5014384;28;19964;-85
2023/08/08 13:08:32;;;;;;;;;;;;;;;26.83;nan;100301.22;5020301;28;19988;-87
2023/08/08 13:10:57;;;;;;;;;;;;;;;26.57;nan;100302.19;5015147;28;19918;-87
2023/08/08 13:13:25;;;;;;;;;;;;;;;26.29;nan;100296.06;5016108;28;20259;-86
2023/08/08 13:15:51;;;;;;;;;;;;;;;26.20;nan;100297.63;5029891;28;19916;-87
2023/08/08 13:18:16;;;;;;;;;;;;;;;25.91;nan;100299.84;5028560;28;19913;-87
2023/08/08 13:20:42;;;;;;;;;;;;;;;25.73;nan;100293.72;5030135;28;19917;-87
2023/08/08 13:23:07;;;;;;;;;;;;;;;25.80;nan;100288.91;5032934;28;19942;-86
2023/08/08 13:25:35;;;;;;;;;;;;;;;25.75;nan;100296.19;5032402;28;19995;-87
2023/08/08 13:28:04;;;;;;;;;;;;;;;25.67;nan;100278.53;5023892;28;19921;-86
2023/08/08 13:30:30;;;;;;;;;;;;;;;25.67;nan;100288.50;5027615;28;20414;-88
2023/08/08 13:32:55;;;;;;;;;;;;;;;;;;5028982;28;20386;-87
2023/08/08 13:35:22;;;;;;;;;;;;;;;25.43;nan;100294.25;5029691;28;20183;-88
2023/08/08 13:37:52;;;;;;;;;;;;;;;25.40;nan;100300.19;5035746;28;20374;-87